createdAt,value
2018-03-24T00:00:19.960Z,0
2018-03-24T00:01:21.343Z,0
2018-03-24T00:02:22.729Z,0
2018-03-24T00:03:24.115Z,0
2018-03-24T00:04:25.584Z,0
2018-03-24T00:05:26.989Z,0
2018-03-24T00:06:28.371Z,0
2018-03-24T00:07:29.757Z,0
2018-03-24T00:08:31.143Z,0
2018-03-24T00:09:32.525Z,0
2018-03-24T00:10:33.908Z,0
2018-03-24T00:11:35.293Z,0
2018-03-24T00:12:36.678Z,0
2018-03-24T00:13:38.061Z,0
2018-03-24T00:14:39.444Z,0
2018-03-24T00:15:40.829Z,0
2018-03-24T00:16:42.210Z,0
2018-03-24T00:17:43.595Z,0
2018-03-24T00:18:44.983Z,0
2018-03-24T00:19:46.366Z,0
2018-03-24T00:20:47.746Z,0
2018-03-24T00:21:49.132Z,0
2018-03-24T00:22:50.516Z,0
2018-03-24T00:23:51.906Z,0
2018-03-24T00:24:53.290Z,0
2018-03-24T00:25:54.676Z,0
2018-03-24T00:26:56.058Z,0
2018-03-24T00:27:57.439Z,0
2018-03-24T00:28:58.826Z,0
2018-03-24T00:30:00.211Z,0
2018-03-24T00:31:01.595Z,0
2018-03-24T00:32:02.981Z,0
2018-03-24T00:33:04.368Z,0
2018-03-24T00:34:05.751Z,0
2018-03-24T00:35:07.132Z,0
2018-03-24T00:36:08.515Z,0
2018-03-24T00:37:09.899Z,0
2018-03-24T00:38:11.283Z,0
2018-03-24T00:39:12.668Z,0
2018-03-24T00:40:14.052Z,0
2018-03-24T00:41:15.433Z,0
2018-03-24T00:42:16.815Z,0
2018-03-24T00:43:18.199Z,0
2018-03-24T00:44:19.586Z,0
2018-03-24T00:45:20.970Z,0
2018-03-24T00:46:22.356Z,0
2018-03-24T00:47:23.748Z,0
2018-03-24T00:48:25.133Z,0
2018-03-24T00:49:26.512Z,0
2018-03-24T00:50:27.895Z,0
2018-03-24T00:51:29.279Z,0
2018-03-24T00:52:30.685Z,0
2018-03-24T00:53:32.119Z,0
2018-03-24T00:54:33.513Z,0
2018-03-24T00:55:34.892Z,0
2018-03-24T00:56:36.277Z,0
2018-03-24T00:57:37.668Z,0
2018-03-24T00:58:39.052Z,0
2018-03-24T00:59:40.431Z,0
2018-03-24T01:00:41.841Z,0
2018-03-24T01:01:43.203Z,0
2018-03-24T01:02:44.591Z,0
2018-03-24T01:03:45.968Z,0
2018-03-24T01:04:47.369Z,0
2018-03-24T01:05:48.754Z,0
2018-03-24T01:06:50.139Z,0
2018-03-24T01:07:51.525Z,0
2018-03-24T01:08:52.911Z,0
2018-03-24T01:09:54.295Z,0
2018-03-24T01:10:55.681Z,0
2018-03-24T01:11:57.087Z,0
2018-03-24T01:12:58.471Z,0
2018-03-24T01:13:59.858Z,0
2018-03-24T01:15:01.242Z,0
2018-03-24T01:16:02.630Z,0
2018-03-24T01:17:04.014Z,0
2018-03-24T01:18:05.398Z,0
2018-03-24T01:19:06.785Z,0
2018-03-24T01:20:08.167Z,0
2018-03-24T01:21:09.553Z,0
2018-03-24T01:22:10.944Z,0
2018-03-24T01:23:12.326Z,0
2018-03-24T01:24:13.711Z,0
2018-03-24T01:25:15.091Z,0
2018-03-24T01:26:16.476Z,0
2018-03-24T01:27:17.868Z,0
2018-03-24T01:28:19.251Z,0
2018-03-24T01:29:20.638Z,0
2018-03-24T01:30:22.025Z,0
2018-03-24T01:31:23.410Z,0
2018-03-24T01:32:24.795Z,0
2018-03-24T01:33:26.180Z,0
2018-03-24T01:34:27.560Z,0
2018-03-24T01:35:28.944Z,0
2018-03-24T01:36:30.331Z,0
2018-03-24T01:37:31.717Z,0
2018-03-24T01:38:33.097Z,0
2018-03-24T01:39:34.478Z,0
2018-03-24T01:40:35.864Z,0
2018-03-24T01:41:37.246Z,0
2018-03-24T01:42:38.661Z,0
2018-03-24T01:43:40.068Z,0
2018-03-24T01:44:41.454Z,0
2018-03-24T01:45:42.841Z,0
2018-03-24T01:46:44.224Z,0
2018-03-24T01:47:45.610Z,0
2018-03-24T01:48:46.996Z,0
2018-03-24T01:49:48.417Z,0
2018-03-24T01:50:49.802Z,0
2018-03-24T01:51:51.190Z,0
2018-03-24T01:52:52.571Z,0
2018-03-24T01:53:53.954Z,0
2018-03-24T01:54:55.335Z,0
2018-03-24T01:55:56.719Z,0
2018-03-24T01:56:58.107Z,0
2018-03-24T01:57:59.489Z,0
2018-03-24T01:59:00.877Z,0
2018-03-24T02:00:02.261Z,0
2018-03-24T02:01:03.649Z,0
2018-03-24T02:02:05.035Z,0
2018-03-24T02:03:06.411Z,0
2018-03-24T02:04:07.801Z,0
2018-03-24T02:05:09.186Z,0
2018-03-24T02:06:10.571Z,0
2018-03-24T02:07:11.961Z,0
2018-03-24T02:08:13.346Z,0
2018-03-24T02:09:14.729Z,0
2018-03-24T02:10:16.117Z,0
2018-03-24T02:11:17.502Z,0
2018-03-24T02:12:18.884Z,0
2018-03-24T02:13:20.267Z,0
2018-03-24T02:14:21.653Z,0
2018-03-24T02:15:23.035Z,0
2018-03-24T02:16:24.419Z,0
2018-03-24T02:17:25.801Z,0
2018-03-24T02:18:27.187Z,0
2018-03-24T02:19:28.576Z,0
2018-03-24T02:20:29.963Z,0
2018-03-24T02:21:31.347Z,0
2018-03-24T02:22:32.762Z,0
2018-03-24T02:23:34.146Z,0
2018-03-24T02:24:35.530Z,0
2018-03-24T02:25:36.947Z,0
2018-03-24T02:26:38.337Z,0
2018-03-24T02:27:39.720Z,0
2018-03-24T02:28:41.101Z,0
2018-03-24T02:29:42.487Z,0
2018-03-24T02:30:43.873Z,0
2018-03-24T02:31:45.333Z,0
2018-03-24T02:32:46.721Z,0
2018-03-24T02:33:48.106Z,0
2018-03-24T02:34:49.491Z,0
2018-03-24T02:35:50.872Z,0
2018-03-24T02:36:52.256Z,0
2018-03-24T02:37:53.644Z,0
2018-03-24T02:38:55.028Z,0
2018-03-24T02:39:56.411Z,0
2018-03-24T02:40:57.795Z,0
2018-03-24T02:41:59.183Z,0
2018-03-24T02:43:00.564Z,0
2018-03-24T02:44:01.961Z,0
2018-03-24T02:45:03.346Z,0
2018-03-24T02:46:04.812Z,0
2018-03-24T02:47:06.120Z,0
2018-03-24T02:48:07.508Z,0
2018-03-24T02:49:08.899Z,0
2018-03-24T02:50:10.272Z,0
2018-03-24T02:51:11.652Z,0
2018-03-24T02:52:13.046Z,0
2018-03-24T02:53:14.429Z,0
2018-03-24T02:54:15.825Z,0
2018-03-24T02:55:17.205Z,0
2018-03-24T02:56:18.582Z,0
2018-03-24T02:57:19.967Z,0
2018-03-24T02:58:21.362Z,0
2018-03-24T02:59:22.743Z,0
2018-03-24T03:00:24.129Z,0
2018-03-24T03:01:25.515Z,0
2018-03-24T03:02:26.902Z,0
2018-03-24T03:03:28.288Z,0
2018-03-24T03:04:29.670Z,0
2018-03-24T03:05:31.054Z,0
2018-03-24T03:06:32.437Z,0
2018-03-24T03:07:33.819Z,0
2018-03-24T03:08:35.205Z,0
2018-03-24T03:09:36.589Z,0
2018-03-24T03:10:37.975Z,0
2018-03-24T03:11:39.359Z,0
2018-03-24T03:12:40.743Z,0
2018-03-24T03:13:42.128Z,0
2018-03-24T03:14:43.521Z,0
2018-03-24T03:15:44.907Z,0
2018-03-24T03:16:46.310Z,0
2018-03-24T03:17:47.704Z,0
2018-03-24T03:18:49.084Z,0
2018-03-24T03:19:50.495Z,0
2018-03-24T03:20:51.885Z,0
2018-03-24T03:21:53.271Z,0
2018-03-24T03:22:54.657Z,0
2018-03-24T03:23:56.046Z,0
2018-03-24T03:24:57.431Z,0
2018-03-24T03:25:58.813Z,0
2018-03-24T03:27:00.195Z,0
2018-03-24T03:28:01.622Z,0
2018-03-24T03:29:02.966Z,0
2018-03-24T03:30:04.352Z,0
2018-03-24T03:31:05.737Z,0
2018-03-24T03:32:07.124Z,0
2018-03-24T03:33:08.572Z,0
2018-03-24T03:34:09.886Z,0
2018-03-24T03:35:11.278Z,0
2018-03-24T03:36:12.663Z,0
2018-03-24T03:37:14.048Z,0
2018-03-24T03:38:15.442Z,0
2018-03-24T03:39:16.825Z,0
2018-03-24T03:40:18.209Z,0
2018-03-24T03:41:19.593Z,0
2018-03-24T03:42:20.984Z,0
2018-03-24T03:43:22.370Z,0
2018-03-24T03:44:23.754Z,0
2018-03-24T03:45:25.142Z,0
2018-03-24T03:46:26.527Z,0
2018-03-24T03:47:27.909Z,0
2018-03-24T03:48:29.295Z,0
2018-03-24T03:49:30.675Z,0
2018-03-24T03:50:32.058Z,0
2018-03-24T03:51:33.443Z,0
2018-03-24T03:52:34.829Z,0
2018-03-24T03:53:36.216Z,0
2018-03-24T03:54:37.600Z,0
2018-03-24T03:55:38.986Z,0
2018-03-24T03:56:40.370Z,0
2018-03-24T03:57:41.753Z,0
2018-03-24T03:58:43.140Z,0
2018-03-24T03:59:44.524Z,0
2018-03-24T04:00:45.909Z,0
2018-03-24T04:01:47.295Z,0
2018-03-24T04:02:48.675Z,0
2018-03-24T04:03:50.058Z,0
2018-03-24T04:04:51.439Z,0
2018-03-24T04:05:52.823Z,0
2018-03-24T04:06:54.209Z,0
2018-03-24T04:07:55.615Z,0
2018-03-24T04:08:57.066Z,0
2018-03-24T04:09:58.470Z,0
2018-03-24T04:10:59.856Z,0
2018-03-24T04:12:01.239Z,0
2018-03-24T04:13:02.626Z,0
2018-03-24T04:14:04.013Z,0
2018-03-24T04:15:05.397Z,0
2018-03-24T04:16:06.781Z,0
2018-03-24T04:17:08.165Z,0
2018-03-24T04:18:09.549Z,0
2018-03-24T04:19:10.932Z,0
2018-03-24T04:20:12.320Z,0
2018-03-24T04:21:13.703Z,0
2018-03-24T04:22:15.090Z,0
2018-03-24T04:23:16.472Z,0
2018-03-24T04:24:17.861Z,0
2018-03-24T04:25:19.237Z,0
2018-03-24T04:26:20.623Z,0
2018-03-24T04:27:22.011Z,0
2018-03-24T04:28:23.391Z,0
2018-03-24T04:29:24.782Z,0
2018-03-24T04:30:26.167Z,0
2018-03-24T04:31:27.549Z,0
2018-03-24T04:32:28.932Z,0
2018-03-24T04:33:30.318Z,0
2018-03-24T04:34:31.705Z,0
2018-03-24T04:35:33.088Z,0
2018-03-24T04:36:34.476Z,0
2018-03-24T04:37:35.890Z,0
2018-03-24T04:38:37.276Z,0
2018-03-24T04:39:38.660Z,0
2018-03-24T04:40:40.043Z,0
2018-03-24T04:41:41.428Z,0
2018-03-24T04:42:42.811Z,0
2018-03-24T04:43:44.211Z,0
2018-03-24T04:44:45.596Z,0
2018-03-24T04:45:46.978Z,0
2018-03-24T04:46:48.366Z,0
2018-03-24T04:47:49.749Z,0
2018-03-24T04:48:51.128Z,0
2018-03-24T04:49:52.510Z,0
2018-03-24T04:50:53.896Z,0
2018-03-24T04:51:55.280Z,0
2018-03-24T04:52:56.667Z,0
2018-03-24T04:53:58.049Z,0
2018-03-24T04:54:59.434Z,0
2018-03-24T04:56:00.816Z,0
2018-03-24T04:57:02.207Z,0
2018-03-24T04:58:03.641Z,0
2018-03-24T04:59:05.030Z,0
2018-03-24T05:00:06.412Z,0
2018-03-24T05:01:07.792Z,4
2018-03-24T05:02:09.208Z,4
2018-03-24T05:03:10.556Z,0
2018-03-24T05:04:11.941Z,0
2018-03-24T05:05:13.327Z,0
2018-03-24T05:06:14.709Z,4
2018-03-24T05:07:16.100Z,0
2018-03-24T05:08:17.482Z,4
2018-03-24T05:09:18.868Z,4
2018-03-24T05:10:20.249Z,4
2018-03-24T05:11:21.630Z,4
2018-03-24T05:12:23.017Z,4
2018-03-24T05:13:24.396Z,8
2018-03-24T05:14:25.777Z,12
2018-03-24T05:15:27.163Z,12
2018-03-24T05:16:28.547Z,12
2018-03-24T05:17:29.936Z,16
2018-03-24T05:18:31.319Z,16
2018-03-24T05:19:32.704Z,24
2018-03-24T05:20:34.088Z,24
2018-03-24T05:21:35.472Z,28
2018-03-24T05:22:36.856Z,28
2018-03-24T05:23:38.239Z,32
2018-03-24T05:24:39.628Z,40
2018-03-24T05:25:41.015Z,44
2018-03-24T05:26:42.399Z,52
2018-03-24T05:27:43.796Z,56
2018-03-24T05:28:45.180Z,64
2018-03-24T05:29:46.562Z,68
2018-03-24T05:30:47.949Z,72
2018-03-24T05:31:49.344Z,84
2018-03-24T05:32:50.728Z,88
2018-03-24T05:33:52.114Z,96
2018-03-24T05:34:53.497Z,104
2018-03-24T05:35:54.884Z,112
2018-03-24T05:36:56.273Z,124
2018-03-24T05:37:57.659Z,132
2018-03-24T05:38:59.057Z,136
2018-03-24T05:40:00.429Z,144
2018-03-24T05:41:01.815Z,156
2018-03-24T05:42:03.199Z,160
2018-03-24T05:43:04.584Z,164
2018-03-24T05:44:05.972Z,172
2018-03-24T05:45:07.356Z,180
2018-03-24T05:46:08.754Z,188
2018-03-24T05:47:10.233Z,196
2018-03-24T05:48:11.618Z,208
2018-03-24T05:49:13.002Z,220
2018-03-24T05:50:14.388Z,228
2018-03-24T05:51:15.777Z,232
2018-03-24T05:52:17.161Z,228
2018-03-24T05:53:18.547Z,232
2018-03-24T05:54:19.936Z,236
2018-03-24T05:55:21.326Z,232
2018-03-24T05:56:22.712Z,232
2018-03-24T05:57:24.103Z,236
2018-03-24T05:58:25.490Z,240
2018-03-24T05:59:26.876Z,244
2018-03-24T06:00:28.262Z,248
2018-03-24T06:01:29.652Z,256
2018-03-24T06:02:31.037Z,264
2018-03-24T06:03:32.426Z,272
2018-03-24T06:04:33.807Z,288
2018-03-24T06:05:35.193Z,304
2018-03-24T06:06:36.582Z,320
2018-03-24T06:07:37.965Z,332
2018-03-24T06:08:39.355Z,336
2018-03-24T06:09:40.742Z,356
2018-03-24T06:10:42.128Z,376
2018-03-24T06:11:43.512Z,404
2018-03-24T06:12:44.896Z,424
2018-03-24T06:13:46.287Z,452
2018-03-24T06:14:47.674Z,468
2018-03-24T06:15:49.064Z,488
2018-03-24T06:16:50.454Z,500
2018-03-24T06:17:51.841Z,520
2018-03-24T06:18:53.228Z,532
2018-03-24T06:19:54.611Z,552
2018-03-24T06:20:55.998Z,584
2018-03-24T06:21:57.384Z,596
2018-03-24T06:22:58.773Z,608
2018-03-24T06:24:00.161Z,628
2018-03-24T06:25:01.553Z,652
2018-03-24T06:26:02.930Z,680
2018-03-24T06:27:04.331Z,700
2018-03-24T06:28:05.724Z,720
2018-03-24T06:29:07.106Z,748
2018-03-24T06:30:08.491Z,756
2018-03-24T06:31:09.882Z,744
2018-03-24T06:32:11.280Z,760
2018-03-24T06:33:12.664Z,788
2018-03-24T06:34:14.048Z,840
2018-03-24T06:35:15.461Z,860
2018-03-24T06:36:16.862Z,912
2018-03-24T06:37:18.253Z,936
2018-03-24T06:38:19.644Z,932
2018-03-24T06:39:21.076Z,952
2018-03-24T06:40:22.460Z,988
2018-03-24T06:41:23.853Z,996
2018-03-24T06:42:25.240Z,1076
2018-03-24T06:43:26.625Z,1060
2018-03-24T06:44:28.013Z,1088
2018-03-24T06:45:29.406Z,1076
2018-03-24T06:46:30.999Z,1116
2018-03-24T06:47:32.390Z,1124
2018-03-24T06:48:33.774Z,1116
2018-03-24T06:49:35.166Z,1120
2018-03-24T06:50:36.555Z,1120
2018-03-24T06:51:38.182Z,1144
2018-03-24T06:52:39.541Z,1196
2018-03-24T06:53:40.930Z,1200
2018-03-24T06:54:42.312Z,1220
2018-03-24T06:55:43.698Z,1256
2018-03-24T06:56:45.088Z,1304
2018-03-24T06:57:46.482Z,1300
2018-03-24T06:58:47.870Z,1284
2018-03-24T06:59:49.257Z,1304
2018-03-24T07:00:50.645Z,1360
2018-03-24T07:01:52.031Z,1380
2018-03-24T07:02:53.423Z,1368
2018-03-24T07:03:54.809Z,1384
2018-03-24T07:04:56.210Z,1432
2018-03-24T07:05:57.604Z,1528
2018-03-24T07:06:58.993Z,1596
2018-03-24T07:08:00.382Z,1668
2018-03-24T07:09:01.764Z,1672
2018-03-24T07:10:03.206Z,1672
2018-03-24T07:11:04.541Z,1744
2018-03-24T07:12:05.923Z,1820
2018-03-24T07:13:07.318Z,1876
2018-03-24T07:14:08.712Z,1964
2018-03-24T07:15:10.151Z,2000
2018-03-24T07:16:11.539Z,2048
2018-03-24T07:17:12.931Z,2028
2018-03-24T07:18:14.320Z,1856
2018-03-24T07:19:15.709Z,1808
2018-03-24T07:20:17.097Z,1644
2018-03-24T07:21:18.506Z,1420
2018-03-24T07:22:19.960Z,1300
2018-03-24T07:23:21.385Z,1244
2018-03-24T07:24:22.776Z,1228
2018-03-24T07:25:24.164Z,1220
2018-03-24T07:26:25.552Z,1228
2018-03-24T07:27:26.938Z,1240
2018-03-24T07:28:28.332Z,1256
2018-03-24T07:29:29.719Z,1276
2018-03-24T07:30:31.110Z,1292
2018-03-24T07:31:32.496Z,1308
2018-03-24T07:32:33.883Z,1324
2018-03-24T07:33:35.276Z,1344
2018-03-24T07:34:36.664Z,1360
2018-03-24T07:35:38.055Z,1376
2018-03-24T07:36:39.438Z,1396
2018-03-24T07:37:40.838Z,1404
2018-03-24T07:38:42.227Z,1372
2018-03-24T07:39:43.615Z,1360
2018-03-24T07:40:45.004Z,1368
2018-03-24T07:41:47.186Z,1384
2018-03-24T07:42:50.671Z,1416
2018-03-24T07:43:52.060Z,1440
2018-03-24T07:44:53.478Z,1464
2018-03-24T07:45:54.868Z,1480
2018-03-24T07:46:56.263Z,1504
2018-03-24T07:47:57.648Z,1512
2018-03-24T07:48:59.039Z,1512
2018-03-24T07:50:00.433Z,1532
2018-03-24T07:51:01.823Z,1560
2018-03-24T07:52:03.210Z,1584
2018-03-24T07:53:04.595Z,1624
2018-03-24T07:54:05.990Z,1648
2018-03-24T07:55:07.383Z,1672
2018-03-24T07:56:08.772Z,1696
2018-03-24T07:57:10.198Z,1724
2018-03-24T07:58:11.591Z,1744
2018-03-24T07:59:12.979Z,1776
2018-03-24T08:00:14.365Z,1808
2018-03-24T08:01:15.755Z,1840
2018-03-24T08:02:17.144Z,1876
2018-03-24T08:03:18.534Z,1920
2018-03-24T08:04:19.923Z,1964
2018-03-24T08:05:21.312Z,2000
2018-03-24T08:06:22.718Z,2032
2018-03-24T08:07:24.118Z,2068
2018-03-24T08:08:25.502Z,2116
2018-03-24T08:09:26.895Z,2172
2018-03-24T08:10:28.296Z,2216
2018-03-24T08:11:29.684Z,2256
2018-03-24T08:12:31.078Z,2284
2018-03-24T08:13:32.467Z,2320
2018-03-24T08:14:33.859Z,2368
2018-03-24T08:15:35.246Z,2412
2018-03-24T08:16:36.638Z,2464
2018-03-24T08:17:38.029Z,2536
2018-03-24T08:18:39.427Z,2600
2018-03-24T08:19:40.823Z,2660
2018-03-24T08:20:42.216Z,2720
2018-03-24T08:21:43.605Z,2772
2018-03-24T08:22:44.989Z,2832
2018-03-24T08:23:46.384Z,2888
2018-03-24T08:24:47.773Z,2952
2018-03-24T08:25:49.168Z,3004
2018-03-24T08:26:50.562Z,3052
2018-03-24T08:27:51.948Z,3124
2018-03-24T08:28:53.338Z,3200
2018-03-24T08:29:54.728Z,3272
2018-03-24T08:30:56.119Z,3340
2018-03-24T08:31:57.509Z,3420
2018-03-24T08:32:58.900Z,3464
2018-03-24T08:34:00.289Z,3500
2018-03-24T08:35:01.679Z,3520
2018-03-24T08:36:03.068Z,3544
2018-03-24T08:37:04.460Z,3580
2018-03-24T08:38:05.854Z,3616
2018-03-24T08:39:07.247Z,3672
2018-03-24T08:40:08.640Z,3668
2018-03-24T08:41:10.033Z,3696
2018-03-24T08:42:11.421Z,3792
2018-03-24T08:43:12.819Z,3892
2018-03-24T08:44:14.206Z,3984
2018-03-24T08:45:15.599Z,4016
2018-03-24T08:46:16.992Z,4024
2018-03-24T08:47:18.383Z,4060
2018-03-24T08:48:19.781Z,4060
2018-03-24T08:49:21.174Z,4136
2018-03-24T08:50:22.570Z,4252
2018-03-24T08:51:23.960Z,4408
2018-03-24T08:52:25.354Z,4516
2018-03-24T08:53:26.747Z,4604
2018-03-24T08:54:28.178Z,4740
2018-03-24T08:55:29.584Z,4816
2018-03-24T08:56:30.972Z,4828
2018-03-24T08:57:32.364Z,4912
2018-03-24T08:58:33.758Z,4952
2018-03-24T08:59:35.151Z,5064
2018-03-24T09:00:36.544Z,5100
2018-03-24T09:01:37.938Z,5096
2018-03-24T09:02:39.327Z,5196
2018-03-24T09:03:40.740Z,5304
2018-03-24T09:04:42.134Z,5452
2018-03-24T09:05:43.528Z,5572
2018-03-24T09:06:44.925Z,5636
2018-03-24T09:07:46.338Z,5692
2018-03-24T09:08:47.751Z,5736
2018-03-24T09:09:49.125Z,5964
2018-03-24T09:10:50.514Z,6048
2018-03-24T09:11:51.910Z,6228
2018-03-24T09:12:53.305Z,6336
2018-03-24T09:13:54.700Z,6580
2018-03-24T09:14:56.097Z,7040
2018-03-24T09:15:57.493Z,11012
2018-03-24T09:16:58.889Z,27968
2018-03-24T09:18:00.281Z,41920
2018-03-24T09:19:01.677Z,46432
2018-03-24T09:20:03.074Z,45728
2018-03-24T09:21:04.471Z,47328
2018-03-24T09:22:05.880Z,47264
2018-03-24T09:23:07.284Z,46432
2018-03-24T09:24:08.676Z,47776
2018-03-24T09:25:10.077Z,51264
2018-03-24T09:26:11.479Z,54816
2018-03-24T09:27:12.881Z,54784
2018-03-24T09:28:14.282Z,50464
2018-03-24T09:29:15.677Z,52320
2018-03-24T09:30:17.077Z,49248
2018-03-24T09:31:18.474Z,50016
2018-03-24T09:32:19.872Z,53696
2018-03-24T09:33:21.273Z,53728
2018-03-24T09:34:22.684Z,50848
2018-03-24T09:35:24.088Z,53344
2018-03-24T09:36:25.492Z,50784
2018-03-24T09:37:26.895Z,46848
2018-03-24T09:38:28.292Z,18176
2018-03-24T09:39:29.718Z,6704
2018-03-24T09:40:31.104Z,8300
2018-03-24T09:41:32.552Z,47744
2018-03-24T09:42:33.965Z,48224
2018-03-24T09:43:35.365Z,49152
2018-03-24T09:44:36.779Z,49696
2018-03-24T09:45:38.172Z,45792
2018-03-24T09:46:39.574Z,45408
2018-03-24T09:47:40.979Z,40928
2018-03-24T09:48:42.382Z,40704
2018-03-24T09:49:43.784Z,39200
2018-03-24T09:50:45.190Z,43136
2018-03-24T09:51:46.588Z,34304
2018-03-24T09:52:48.001Z,41856
2018-03-24T09:53:49.406Z,36896
2018-03-24T09:54:50.800Z,24512
2018-03-24T09:55:52.202Z,27680
2018-03-24T09:56:53.628Z,30560
2018-03-24T09:57:55.031Z,34592
2018-03-24T09:58:56.437Z,34496
2018-03-24T09:59:57.845Z,35680
2018-03-24T10:00:59.246Z,36064
2018-03-24T10:02:00.705Z,41152
2018-03-24T10:03:02.054Z,40064
2018-03-24T10:04:03.459Z,39520
2018-03-24T10:05:04.868Z,38464
2018-03-24T10:06:06.292Z,39456
2018-03-24T10:07:07.696Z,46688
2018-03-24T10:08:09.093Z,43072
2018-03-24T10:09:10.514Z,43040
2018-03-24T10:10:11.914Z,40896
2018-03-24T10:11:13.318Z,42336
2018-03-24T10:12:14.724Z,8372
2018-03-24T10:13:16.129Z,13984
2018-03-24T10:14:17.532Z,36672
2018-03-24T10:15:18.933Z,38336
2018-03-24T10:16:20.339Z,29856
2018-03-24T10:17:21.739Z,9676
2018-03-24T10:18:23.140Z,8852
2018-03-24T10:19:24.546Z,13520
2018-03-24T10:20:25.978Z,12520
2018-03-24T10:21:27.379Z,13588
2018-03-24T10:22:28.828Z,11564
2018-03-24T10:23:30.191Z,8124
2018-03-24T10:24:31.590Z,9464
2018-03-24T10:25:32.996Z,15052
2018-03-24T10:26:34.470Z,14816
2018-03-24T10:27:35.883Z,12524
2018-03-24T10:28:37.381Z,9064
2018-03-24T10:29:38.776Z,7500
2018-03-24T10:30:40.174Z,7436
2018-03-24T10:31:41.575Z,7996
2018-03-24T10:32:42.980Z,11396
2018-03-24T10:33:44.385Z,10588
2018-03-24T10:34:45.806Z,9096
2018-03-24T10:35:47.205Z,13256
2018-03-24T10:36:48.603Z,13724
2018-03-24T10:37:50.006Z,13888
2018-03-24T10:38:51.406Z,13636
2018-03-24T10:39:52.806Z,13332
2018-03-24T10:40:54.208Z,7936
2018-03-24T10:41:55.611Z,14864
2018-03-24T10:42:57.010Z,16384
2018-03-24T10:43:58.412Z,10896
2018-03-24T10:44:59.808Z,11732
2018-03-24T10:46:01.221Z,9476
2018-03-24T10:47:02.623Z,11480
2018-03-24T10:48:04.022Z,15652
2018-03-24T10:49:05.427Z,15720
2018-03-24T10:50:06.826Z,15632
2018-03-24T10:51:08.222Z,16928
2018-03-24T10:52:09.624Z,16384
2018-03-24T10:53:11.030Z,15664
2018-03-24T10:54:12.431Z,17152
2018-03-24T10:55:13.904Z,17024
2018-03-24T10:56:15.307Z,16832
2018-03-24T10:57:16.706Z,14516
2018-03-24T10:58:18.124Z,16064
2018-03-24T10:59:19.523Z,15032
2018-03-24T11:00:20.939Z,8056
2018-03-24T11:01:22.572Z,9664
2018-03-24T11:02:24.076Z,16032
2018-03-24T11:03:25.509Z,15424
2018-03-24T11:04:26.968Z,15296
2018-03-24T11:05:28.375Z,14376
2018-03-24T11:06:29.773Z,14744
2018-03-24T11:07:31.180Z,15044
2018-03-24T11:08:32.585Z,15404
2018-03-24T11:09:33.987Z,15276
2018-03-24T11:10:35.394Z,15348
2018-03-24T11:11:36.791Z,15240
2018-03-24T11:12:38.186Z,15016
2018-03-24T11:13:39.599Z,14560
2018-03-24T11:14:41.043Z,13976
2018-03-24T11:15:42.442Z,14512
2018-03-24T11:16:43.843Z,13808
2018-03-24T11:17:45.255Z,14248
2018-03-24T11:18:46.647Z,13588
2018-03-24T11:19:48.045Z,14984
2018-03-24T11:20:49.443Z,15268
2018-03-24T11:21:50.846Z,15808
2018-03-24T11:22:52.249Z,15776
2018-03-24T11:23:53.648Z,16064
2018-03-24T11:24:55.049Z,16192
2018-03-24T11:25:56.448Z,16768
2018-03-24T11:26:57.846Z,16736
2018-03-24T11:27:59.246Z,16896
2018-03-24T11:29:00.650Z,16800
2018-03-24T11:30:02.051Z,16416
2018-03-24T11:31:03.450Z,15840
2018-03-24T11:32:04.850Z,16832
2018-03-24T11:33:06.290Z,16576
2018-03-24T11:34:07.659Z,16832
2018-03-24T11:35:09.059Z,17024
2018-03-24T11:36:10.460Z,17248
2018-03-24T11:37:11.866Z,17856
2018-03-24T11:38:13.265Z,17856
2018-03-24T11:39:14.683Z,17216
2018-03-24T11:40:16.091Z,16960
2018-03-24T11:41:17.489Z,16576
2018-03-24T11:42:18.924Z,16448
2018-03-24T11:43:20.334Z,16096
2018-03-24T11:44:21.722Z,16256
2018-03-24T11:45:23.124Z,16256
2018-03-24T11:46:24.528Z,16064
2018-03-24T11:47:25.924Z,14704
2018-03-24T11:48:27.323Z,15104
2018-03-24T11:49:28.737Z,15648
2018-03-24T11:50:30.125Z,16032
2018-03-24T11:51:31.527Z,16192
2018-03-24T11:52:32.940Z,16352
2018-03-24T11:53:34.346Z,16480
2018-03-24T11:54:35.760Z,16096
2018-03-24T11:55:37.160Z,16224
2018-03-24T11:56:38.562Z,15872
2018-03-24T11:57:39.965Z,16160
2018-03-24T11:58:41.361Z,16064
2018-03-24T11:59:42.765Z,16192
2018-03-24T12:00:44.228Z,16064
2018-03-24T12:01:45.712Z,16352
2018-03-24T12:02:47.115Z,16032
2018-03-24T12:03:48.514Z,16096
2018-03-24T12:04:49.914Z,15520
2018-03-24T12:05:51.337Z,15776
2018-03-24T12:06:52.744Z,15016
2018-03-24T12:07:54.145Z,15144
2018-03-24T12:08:55.551Z,15224
2018-03-24T12:09:56.948Z,12696
2018-03-24T12:10:58.349Z,15168
2018-03-24T12:11:59.745Z,14416
2018-03-24T12:13:01.147Z,13776
2018-03-24T12:14:02.551Z,13396
2018-03-24T12:15:03.958Z,13240
2018-03-24T12:16:05.357Z,12940
2018-03-24T12:17:06.841Z,12132
2018-03-24T12:18:08.242Z,11404
2018-03-24T12:19:09.641Z,11028
2018-03-24T12:20:11.042Z,11120
2018-03-24T12:21:12.445Z,11172
2018-03-24T12:22:13.892Z,11012
2018-03-24T12:23:15.279Z,11136
2018-03-24T12:24:16.677Z,10480
2018-03-24T12:25:18.077Z,11548
2018-03-24T12:26:19.478Z,12708
2018-03-24T12:27:20.881Z,13192
2018-03-24T12:28:22.280Z,13908
2018-03-24T12:29:23.685Z,13900
2018-03-24T12:30:25.090Z,13864
2018-03-24T12:31:26.485Z,13592
2018-03-24T12:32:27.884Z,14368
2018-03-24T12:33:29.285Z,14576
2018-03-24T12:34:30.687Z,14876
2018-03-24T12:35:32.087Z,13624
2018-03-24T12:36:33.492Z,15156
2018-03-24T12:37:34.894Z,7632
2018-03-24T12:38:36.296Z,15108
2018-03-24T12:39:37.693Z,15488
2018-03-24T12:40:39.097Z,15164
2018-03-24T12:41:40.493Z,14060
2018-03-24T12:42:41.894Z,14040
2018-03-24T12:43:43.294Z,4848
2018-03-24T12:44:44.693Z,5548
2018-03-24T12:45:46.086Z,11948
2018-03-24T12:46:47.491Z,13504
2018-03-24T12:47:48.974Z,13900
2018-03-24T12:48:50.388Z,14440
2018-03-24T12:49:51.792Z,14236
2018-03-24T12:50:53.196Z,14268
2018-03-24T12:51:54.596Z,14444
2018-03-24T12:52:55.994Z,14116
2018-03-24T12:53:57.401Z,13952
2018-03-24T12:54:58.810Z,14532
2018-03-24T12:56:00.214Z,14296
2018-03-24T12:57:01.614Z,13968
2018-03-24T12:58:03.021Z,14296
2018-03-24T12:59:04.421Z,14084
2018-03-24T13:00:05.820Z,13796
2018-03-24T13:01:07.250Z,13564
2018-03-24T13:02:08.652Z,13580
2018-03-24T13:03:10.050Z,13324
2018-03-24T13:04:11.473Z,13392
2018-03-24T13:05:12.877Z,13632
2018-03-24T13:06:14.277Z,13768
2018-03-24T13:07:15.697Z,13296
2018-03-24T13:08:17.118Z,8788
2018-03-24T13:09:18.520Z,12392
2018-03-24T13:10:19.921Z,4220
2018-03-24T13:11:21.330Z,4144
2018-03-24T13:12:22.735Z,5768
2018-03-24T13:13:24.180Z,12924
2018-03-24T13:14:25.580Z,12708
2018-03-24T13:15:26.981Z,12996
2018-03-24T13:16:28.377Z,13124
2018-03-24T13:17:29.779Z,13264
2018-03-24T13:18:31.188Z,13344
2018-03-24T13:19:32.590Z,13148
2018-03-24T13:20:33.994Z,13176
2018-03-24T13:21:35.409Z,13152
2018-03-24T13:22:36.810Z,12980
2018-03-24T13:23:38.223Z,12932
2018-03-24T13:24:39.635Z,12632
2018-03-24T13:25:41.035Z,12812
2018-03-24T13:26:42.439Z,12364
2018-03-24T13:27:43.848Z,12620
2018-03-24T13:28:45.294Z,12616
2018-03-24T13:29:46.642Z,12132
2018-03-24T13:30:48.044Z,12184
2018-03-24T13:31:49.452Z,11708
2018-03-24T13:32:50.855Z,11952
2018-03-24T13:33:52.274Z,8064
2018-03-24T13:34:53.757Z,4888
2018-03-24T13:35:55.215Z,12264
2018-03-24T13:36:56.609Z,12320
2018-03-24T13:37:58.012Z,11840
2018-03-24T13:38:59.409Z,11932
2018-03-24T13:40:00.815Z,11540
2018-03-24T13:41:02.220Z,12036
2018-03-24T13:42:03.619Z,11760
2018-03-24T13:43:05.022Z,11848
2018-03-24T13:44:06.421Z,11528
2018-03-24T13:45:07.819Z,11784
2018-03-24T13:46:09.244Z,11348
2018-03-24T13:47:10.648Z,11356
2018-03-24T13:48:12.043Z,6812
2018-03-24T13:49:13.443Z,5668
2018-03-24T13:50:14.841Z,7056
2018-03-24T13:51:16.242Z,10960
2018-03-24T13:52:17.641Z,10504
2018-03-24T13:53:19.044Z,9136
2018-03-24T13:54:20.447Z,6156
2018-03-24T13:55:21.850Z,9816
2018-03-24T13:56:23.279Z,10568
2018-03-24T13:57:24.652Z,10252
2018-03-24T13:58:26.055Z,10428
2018-03-24T13:59:27.456Z,10372
2018-03-24T14:00:28.859Z,10396
2018-03-24T14:01:30.272Z,9472
2018-03-24T14:02:31.665Z,9164
2018-03-24T14:03:33.064Z,9304